createdAt,value
2017-12-22T00:00:10.380Z,43.17
2017-12-22T00:02:38.907Z,45.83
2017-12-22T00:05:07.447Z,45.43
2017-12-22T00:07:36.035Z,42.73
2017-12-22T00:10:04.625Z,43.40
2017-12-22T00:12:33.960Z,47.37
2017-12-22T00:15:02.499Z,46.50
2017-12-22T00:17:31.084Z,41.63
2017-12-22T00:19:59.663Z,43.73
2017-12-22T00:22:30.220Z,49.57
2017-12-22T00:24:58.783Z,44.37
2017-12-22T00:27:28.125Z,44.37
2017-12-22T00:29:56.716Z,44.67
2017-12-22T00:32:25.344Z,48.13
2017-12-22T00:34:54.741Z,45.30
2017-12-22T00:37:23.299Z,44.77
2017-12-22T00:39:51.850Z,47.87
2017-12-22T00:42:20.405Z,46.70
2017-12-22T00:44:49.736Z,52.63
2017-12-22T00:47:18.280Z,47.47
2017-12-22T00:49:47.627Z,51.43
2017-12-22T00:52:16.166Z,46.93
2017-12-22T00:54:45.526Z,48.67
2017-12-22T00:57:14.078Z,45.80
2017-12-22T00:59:42.631Z,49.20
2017-12-22T01:02:11.183Z,46.10
2017-12-22T01:04:39.740Z,47.10
2017-12-22T01:07:08.320Z,50.80
2017-12-22T01:09:36.885Z,52.33
2017-12-22T01:12:06.201Z,45.33
2017-12-22T01:14:34.730Z,46.73
2017-12-22T01:20:12.157Z,45.40
2017-12-22T01:22:40.722Z,51.27
2017-12-22T01:25:09.260Z,44.13
2017-12-22T01:27:37.843Z,45.80
2017-12-22T01:30:06.423Z,44.90
2017-12-22T01:32:35.002Z,43.93
2017-12-22T01:35:03.540Z,44.73
2017-12-22T01:37:32.075Z,39.73
2017-12-22T01:40:00.634Z,41.10
2017-12-22T01:42:29.915Z,37.90
2017-12-22T01:44:58.472Z,36.20
2017-12-22T01:47:27.021Z,37.63
2017-12-22T01:49:55.568Z,40.33
2017-12-22T01:52:24.146Z,44.13
2017-12-22T01:54:52.706Z,37.83
2017-12-22T01:57:21.209Z,39.17
2017-12-22T01:59:49.774Z,39.23
2017-12-22T02:02:18.306Z,44.23
2017-12-22T02:04:46.884Z,41.03
2017-12-22T02:07:15.447Z,39.70
2017-12-22T02:09:43.988Z,46.07
2017-12-22T02:12:12.547Z,45.93
2017-12-22T02:14:41.085Z,42.17
2017-12-22T02:17:09.650Z,47.37
2017-12-22T02:19:38.164Z,46.13
2017-12-22T02:22:07.500Z,47.70
2017-12-22T02:24:36.066Z,45.73
2017-12-22T02:27:04.592Z,48.60
2017-12-22T02:29:33.141Z,46.50
2017-12-22T02:32:01.688Z,46.23
2017-12-22T02:34:30.988Z,44.73
2017-12-22T02:36:59.545Z,47.43
2017-12-22T02:39:28.128Z,46.30
2017-12-22T02:41:56.704Z,48.27
2017-12-22T02:44:25.278Z,52.90
2017-12-22T02:46:53.835Z,52.23
2017-12-22T02:49:22.396Z,51.53
2017-12-22T02:51:51.717Z,47.17
2017-12-22T02:54:20.279Z,47.00
2017-12-22T02:56:49.596Z,50.77
2017-12-22T02:59:18.163Z,48.03
2017-12-22T03:01:47.474Z,49.93
2017-12-22T03:04:16.015Z,47.87
2017-12-22T03:06:44.578Z,51.70
2017-12-22T03:09:13.152Z,53.03
2017-12-22T03:11:41.702Z,52.57
2017-12-22T03:14:11.008Z,50.97
2017-12-22T03:16:39.568Z,53.67
2017-12-22T03:19:08.883Z,53.50
2017-12-22T03:21:37.430Z,47.80
2017-12-22T03:24:05.999Z,54.10
2017-12-22T03:26:34.576Z,49.30
2017-12-22T03:29:03.138Z,60.33
2017-12-22T03:31:31.702Z,54.60
2017-12-22T03:34:01.015Z,49.40
2017-12-22T03:36:29.598Z,56.10
2017-12-22T03:38:58.162Z,53.80
2017-12-22T03:41:27.471Z,59.53
2017-12-22T03:43:56.043Z,56.60
2017-12-22T03:46:25.370Z,59.93
2017-12-22T03:48:53.896Z,53.43
2017-12-22T03:51:22.457Z,61.13
2017-12-22T03:53:51.829Z,62.27
2017-12-22T03:56:20.377Z,50.30
2017-12-22T03:58:48.935Z,56.60
2017-12-22T04:01:17.531Z,57.67
2017-12-22T04:03:46.079Z,52.97
2017-12-22T04:06:14.703Z,58.30
2017-12-22T04:08:43.248Z,55.53
2017-12-22T04:11:11.751Z,49.97
2017-12-22T04:13:40.306Z,61.67
2017-12-22T04:16:08.829Z,61.83
2017-12-22T04:18:37.344Z,62.07
2017-12-22T04:21:05.896Z,59.03
2017-12-22T04:23:34.452Z,56.67
2017-12-22T04:26:03.018Z,53.70
2017-12-22T04:28:31.593Z,63.17
2017-12-22T04:31:00.181Z,58.03
2017-12-22T04:33:28.728Z,62.20
2017-12-22T04:35:57.315Z,67.27
2017-12-22T04:38:26.637Z,64.60
2017-12-22T04:40:55.195Z,65.90
2017-12-22T04:43:25.003Z,78.90
2017-12-22T04:45:54.317Z,71.40
2017-12-22T04:48:22.859Z,74.60
2017-12-22T04:50:51.421Z,83.43
2017-12-22T04:53:19.961Z,95.53
2017-12-22T04:55:49.244Z,78.80
2017-12-22T04:58:17.785Z,81.60
2017-12-22T05:00:46.371Z,64.47
2017-12-22T05:03:14.892Z,107.00
2017-12-22T05:05:43.430Z,58.93
2017-12-22T05:08:11.952Z,58.40
2017-12-22T05:10:40.455Z,99.53
2017-12-22T05:13:08.972Z,54.27
2017-12-22T05:15:37.599Z,67.27
2017-12-22T05:18:06.128Z,59.23
2017-12-22T05:20:34.692Z,91.43
2017-12-22T05:23:03.265Z,62.23
2017-12-22T05:25:32.564Z,60.20
2017-12-22T05:28:01.890Z,71.90
2017-12-22T05:30:30.438Z,61.50
2017-12-22T05:32:59.760Z,53.23
2017-12-22T05:35:28.303Z,60.07
2017-12-22T05:37:56.864Z,56.57
2017-12-22T05:40:25.374Z,80.90
2017-12-22T05:42:53.944Z,58.60
2017-12-22T05:45:22.512Z,71.87
2017-12-22T05:47:51.094Z,49.80
2017-12-22T05:50:19.629Z,48.53
2017-12-22T05:52:48.164Z,46.23
2017-12-22T05:55:16.675Z,70.77
2017-12-22T05:57:45.251Z,40.43
2017-12-22T06:00:13.820Z,39.13
2017-12-22T06:02:42.355Z,47.80
2017-12-22T06:05:10.908Z,55.27
2017-12-22T06:07:39.481Z,43.97
2017-12-22T06:10:08.011Z,42.07
2017-12-22T06:12:36.568Z,45.27
2017-12-22T06:15:05.891Z,40.03
2017-12-22T06:17:34.404Z,40.17
2017-12-22T06:20:02.999Z,37.53
2017-12-22T06:22:31.527Z,38.97
2017-12-22T06:25:00.049Z,36.50
2017-12-22T06:27:28.607Z,39.03
2017-12-22T06:29:57.192Z,29.53
2017-12-22T06:32:25.754Z,25.67
2017-12-22T06:34:54.313Z,22.17
2017-12-22T06:37:22.875Z,22.53
2017-12-22T06:39:51.425Z,27.50
2017-12-22T06:42:20.002Z,27.30
2017-12-22T06:44:48.567Z,30.87
2017-12-22T06:47:17.100Z,25.37
2017-12-22T06:49:45.685Z,21.47
2017-12-22T06:52:14.268Z,27.40
2017-12-22T06:54:42.849Z,19.63
2017-12-22T06:57:13.444Z,24.50
2017-12-22T06:59:41.983Z,21.17
2017-12-22T07:02:10.544Z,26.87
2017-12-22T07:04:39.135Z,18.77
2017-12-22T07:07:07.704Z,18.40
2017-12-22T07:09:36.295Z,23.13
2017-12-22T07:12:04.842Z,22.20
2017-12-22T07:14:33.400Z,20.10
2017-12-22T07:17:02.748Z,21.47
2017-12-22T07:19:31.305Z,23.17
2017-12-22T07:21:59.859Z,17.97
2017-12-22T07:24:28.402Z,17.40
2017-12-22T07:26:56.957Z,14.93
2017-12-22T07:29:25.527Z,15.83
2017-12-22T07:31:54.081Z,14.83
2017-12-22T07:34:22.647Z,18.83
2017-12-22T07:36:51.192Z,16.10
2017-12-22T07:39:19.775Z,14.30
2017-12-22T07:41:48.289Z,11.27
2017-12-22T07:44:16.843Z,12.73
2017-12-22T07:46:45.391Z,13.43
2017-12-22T07:49:14.716Z,16.87
2017-12-22T07:51:43.294Z,12.43
2017-12-22T07:54:11.804Z,20.17
2017-12-22T07:56:40.383Z,17.57
2017-12-22T07:59:08.912Z,18.77
2017-12-22T08:01:37.495Z,18.37
2017-12-22T08:04:06.073Z,15.27
2017-12-22T08:06:34.616Z,12.30
2017-12-22T08:09:03.221Z,10.30
2017-12-22T08:17:22.423Z,16.37
2017-12-22T08:19:51.007Z,14.17
2017-12-22T08:22:19.525Z,16.53
2017-12-22T08:24:48.854Z,23.80
2017-12-22T08:27:17.372Z,15.23
2017-12-22T08:29:45.897Z,18.53
2017-12-22T08:32:14.439Z,23.03
2017-12-22T08:34:43.012Z,16.73
2017-12-22T08:40:06.739Z,23.03
2017-12-22T08:42:35.317Z,23.30
2017-12-22T08:45:03.572Z,17.13
2017-12-22T08:47:32.107Z,14.33
2017-12-22T08:50:00.639Z,15.77
2017-12-22T08:52:29.197Z,10.53
2017-12-22T08:54:57.730Z,9.23
2017-12-22T08:57:27.066Z,7.83
2017-12-22T08:59:55.629Z,8.33
2017-12-22T09:02:24.148Z,9.33
2017-12-22T09:04:52.688Z,11.07
2017-12-22T09:07:22.017Z,11.53
2017-12-22T09:09:50.516Z,10.67
2017-12-22T09:12:19.099Z,13.90
2017-12-22T09:14:47.630Z,11.93
2017-12-22T09:17:16.171Z,15.67
2017-12-22T09:19:44.755Z,12.73
2017-12-22T09:22:13.303Z,15.93
2017-12-22T09:24:41.835Z,11.13
2017-12-22T09:27:10.429Z,12.40
2017-12-22T09:29:39.768Z,14.17
2017-12-22T09:32:08.351Z,10.73
2017-12-22T09:34:36.913Z,9.50
2017-12-22T09:37:06.192Z,8.53
2017-12-22T09:39:34.780Z,9.03
2017-12-22T09:42:03.369Z,14.93
2017-12-22T09:44:32.707Z,14.87
2017-12-22T09:47:01.240Z,14.27
2017-12-22T09:49:29.820Z,12.43
2017-12-22T09:51:58.412Z,9.30
2017-12-22T09:54:26.983Z,8.07
2017-12-22T09:56:55.559Z,7.37
2017-12-22T09:59:24.102Z,7.20
2017-12-22T10:01:53.639Z,6.63
2017-12-22T10:04:22.212Z,7.90
2017-12-22T10:06:50.785Z,7.10
2017-12-22T10:09:19.367Z,7.17
2017-12-22T10:11:47.899Z,8.47
2017-12-22T10:14:17.225Z,8.00
2017-12-22T10:16:45.718Z,6.50
2017-12-22T10:19:14.111Z,7.27
2017-12-22T10:21:42.683Z,6.23
2017-12-22T10:24:11.265Z,6.70
2017-12-22T10:26:39.831Z,5.43
2017-12-22T10:29:08.381Z,6.17
2017-12-22T10:31:36.926Z,6.57
2017-12-22T10:34:05.470Z,5.40
2017-12-22T10:36:34.802Z,5.67
2017-12-22T10:39:06.444Z,6.57
2017-12-22T10:41:35.019Z,13.23
2017-12-22T10:44:03.591Z,10.47
2017-12-22T10:46:41.018Z,9.83
2017-12-22T10:49:09.538Z,9.27
2017-12-22T10:51:38.087Z,7.37
2017-12-22T10:54:06.651Z,9.50
2017-12-22T10:56:35.183Z,10.77
2017-12-22T10:59:03.768Z,12.40
2017-12-22T11:01:32.378Z,10.00
2017-12-22T11:04:00.927Z,8.67
2017-12-22T11:06:29.428Z,10.93
2017-12-22T11:09:11.841Z,8.63
2017-12-22T11:11:41.257Z,10.53
2017-12-22T11:14:10.621Z,11.03
2017-12-22T11:16:39.173Z,9.03
2017-12-22T11:19:07.677Z,8.33
2017-12-22T11:21:36.220Z,13.77
2017-12-22T11:24:04.865Z,14.63
2017-12-22T11:26:33.623Z,13.80
2017-12-22T11:29:02.184Z,8.83
2017-12-22T11:31:30.731Z,12.93
2017-12-22T11:33:59.835Z,10.60
2017-12-22T11:36:28.386Z,10.23
2017-12-22T11:38:56.949Z,12.87
2017-12-22T11:41:25.530Z,10.63
2017-12-22T11:43:54.063Z,10.13
2017-12-22T11:46:23.396Z,10.10
2017-12-22T11:48:51.635Z,11.60
2017-12-22T11:51:20.967Z,10.60
2017-12-22T11:53:49.522Z,13.00
2017-12-22T11:56:18.898Z,13.63
2017-12-22T11:58:47.488Z,14.53
2017-12-22T12:01:18.011Z,13.97
2017-12-22T12:03:46.586Z,10.70
2017-12-22T12:06:15.234Z,12.90
2017-12-22T12:08:43.800Z,10.17
2017-12-22T12:11:12.400Z,12.97
2017-12-22T12:13:40.927Z,13.80
2017-12-22T12:16:09.464Z,12.50
2017-12-22T12:18:38.048Z,14.97
2017-12-22T12:21:06.673Z,13.00
2017-12-22T12:23:35.296Z,10.87
2017-12-22T12:26:03.848Z,13.63
2017-12-22T12:28:32.447Z,13.63
2017-12-22T12:31:01.775Z,13.67
2017-12-22T12:33:30.342Z,10.77
2017-12-22T12:35:59.634Z,14.40
2017-12-22T12:38:28.946Z,12.53
2017-12-22T12:40:57.519Z,12.87
2017-12-22T12:43:26.820Z,11.83
2017-12-22T12:45:56.103Z,16.57
2017-12-22T12:48:24.660Z,13.33
2017-12-22T12:50:53.232Z,11.63
2017-12-22T12:53:21.783Z,12.30
2017-12-22T12:55:50.417Z,14.80
2017-12-22T12:58:18.959Z,12.27
2017-12-22T13:00:47.542Z,13.50
2017-12-22T13:03:16.094Z,15.23
2017-12-22T13:05:44.705Z,16.20
2017-12-22T13:08:13.399Z,16.27
2017-12-22T13:10:42.322Z,16.80
2017-12-22T13:13:21.466Z,17.10
2017-12-22T13:15:50.404Z,17.53
2017-12-22T13:18:19.365Z,15.70
2017-12-22T13:20:48.309Z,18.27
2017-12-22T13:23:17.336Z,23.17
2017-12-22T13:25:48.371Z,43.50
2017-12-22T13:28:17.817Z,32.67
2017-12-22T13:30:47.264Z,26.00
2017-12-22T13:33:15.845Z,32.67
2017-12-22T13:35:58.381Z,26.33
2017-12-22T13:38:27.191Z,22.00
2017-12-22T13:40:56.583Z,18.10
2017-12-22T13:43:25.179Z,20.73
2017-12-22T13:45:54.627Z,22.50
2017-12-22T13:48:23.191Z,20.87
2017-12-22T13:50:52.716Z,21.57
2017-12-22T13:53:21.348Z,21.17
2017-12-22T13:55:49.907Z,22.87
2017-12-22T13:58:18.471Z,22.50
2017-12-22T14:00:47.107Z,24.40
2017-12-22T14:03:15.635Z,20.53
2017-12-22T14:05:44.178Z,20.57
2017-12-22T14:08:13.513Z,20.07
2017-12-22T14:10:42.079Z,18.30
2017-12-22T14:13:11.396Z,26.40
2017-12-22T14:15:39.973Z,21.47
2017-12-22T14:18:08.486Z,22.17
2017-12-22T14:20:37.027Z,21.57
2017-12-22T14:23:06.373Z,21.60
2017-12-22T14:25:34.892Z,23.00
2017-12-22T14:28:04.190Z,22.03
2017-12-22T14:30:33.515Z,23.43
2017-12-22T14:33:02.066Z,21.87
2017-12-22T14:35:30.648Z,21.33
2017-12-22T14:37:59.238Z,22.53
2017-12-22T14:40:27.778Z,26.00
2017-12-22T14:42:56.350Z,20.63
2017-12-22T14:45:24.953Z,23.90
2017-12-22T14:47:53.497Z,20.43
2017-12-22T14:50:22.079Z,21.00
2017-12-22T14:52:50.636Z,22.30
2017-12-22T14:55:19.967Z,25.30
2017-12-22T14:57:48.521Z,23.43
2017-12-22T15:00:17.865Z,27.13
2017-12-22T15:02:46.404Z,23.77
2017-12-22T15:05:15.716Z,27.20
2017-12-22T15:07:44.303Z,23.83
2017-12-22T15:10:13.627Z,23.93
2017-12-22T15:12:42.197Z,32.33
2017-12-22T15:15:12.998Z,27.80
2017-12-22T15:17:41.562Z,39.67
2017-12-22T15:20:10.115Z,29.93
2017-12-22T15:22:38.683Z,26.13
2017-12-22T15:25:24.717Z,23.73
2017-12-22T15:27:53.253Z,32.83
2017-12-22T15:30:22.523Z,41.30
2017-12-22T15:32:51.094Z,33.70
2017-12-22T15:35:19.647Z,37.10
2017-12-22T15:37:48.230Z,33.23
2017-12-22T15:40:16.784Z,43.70
2017-12-22T15:42:47.312Z,36.37
2017-12-22T15:45:15.862Z,46.13
2017-12-22T15:47:44.574Z,51.57
2017-12-22T15:50:13.136Z,39.50
2017-12-22T15:52:41.759Z,43.87
2017-12-22T15:55:10.293Z,44.33
2017-12-22T15:57:38.851Z,48.27
2017-12-22T16:00:07.491Z,40.00
2017-12-22T16:02:36.826Z,36.60
2017-12-22T16:05:05.357Z,32.97
2017-12-22T16:07:37.340Z,35.40
2017-12-22T16:10:06.651Z,39.67
2017-12-22T16:12:35.158Z,43.67
2017-12-22T16:15:03.811Z,34.70
2017-12-22T16:17:32.393Z,37.50
2017-12-22T16:20:00.899Z,33.93
2017-12-22T16:22:29.459Z,39.63
2017-12-22T16:24:58.103Z,35.60
2017-12-22T16:27:26.651Z,36.17
2017-12-22T16:29:55.284Z,34.27
2017-12-22T16:32:23.834Z,40.47
2017-12-22T16:34:52.456Z,39.53
2017-12-22T16:37:21.780Z,43.70
2017-12-22T16:39:50.346Z,39.57
2017-12-22T16:42:19.636Z,34.87
2017-12-22T16:44:48.966Z,30.00
2017-12-22T16:47:17.515Z,33.23
2017-12-22T16:49:46.048Z,29.63
2017-12-22T16:52:14.634Z,27.77
2017-12-22T16:54:43.206Z,33.17
2017-12-22T16:57:11.773Z,32.73
2017-12-22T16:59:40.342Z,29.60
2017-12-22T17:02:09.729Z,31.97
2017-12-22T17:04:38.266Z,35.93
2017-12-22T17:07:06.853Z,26.80
2017-12-22T17:09:35.387Z,33.27
2017-12-22T17:12:04.715Z,43.63
2017-12-22T17:14:33.230Z,35.10
2017-12-22T17:17:01.796Z,33.03
2017-12-22T17:19:30.327Z,33.83
2017-12-22T17:21:58.896Z,31.03
2017-12-22T17:24:27.423Z,37.80
2017-12-22T17:32:47.486Z,34.17
2017-12-22T17:35:16.047Z,29.50
2017-12-22T17:37:44.548Z,32.33
2017-12-22T17:40:13.101Z,28.73
2017-12-22T17:42:41.743Z,29.03
2017-12-22T17:45:10.299Z,27.87
2017-12-22T17:47:43.663Z,27.97
2017-12-22T17:50:12.327Z,32.37
2017-12-22T17:52:41.594Z,31.37
2017-12-22T17:55:10.174Z,28.40
2017-12-22T17:57:38.904Z,29.47
2017-12-22T18:00:07.516Z,29.17
2017-12-22T18:02:53.054Z,25.23
2017-12-22T18:05:21.836Z,322.50
2017-12-22T18:07:50.119Z,270.17
2017-12-22T18:10:18.428Z,56.87
2017-12-22T18:12:46.352Z,46.57
2017-12-22T18:15:14.922Z,45.10
2017-12-22T18:17:43.483Z,51.73
2017-12-22T18:20:24.896Z,44.90
2017-12-22T18:22:53.438Z,41.50
2017-12-22T18:25:21.994Z,40.67
2017-12-22T18:27:51.260Z,35.50
2017-12-22T18:30:19.807Z,34.53
2017-12-22T18:32:48.355Z,31.60
2017-12-22T18:35:16.942Z,31.17
2017-12-22T18:37:45.514Z,27.83
2017-12-22T18:40:14.045Z,26.17
2017-12-22T18:42:42.688Z,34.87
2017-12-22T18:45:15.756Z,34.10
2017-12-22T18:47:44.313Z,33.73
2017-12-22T18:50:12.841Z,28.80
2017-12-22T18:52:41.408Z,28.73
2017-12-22T18:55:28.379Z,26.93
2017-12-22T18:57:56.934Z,25.87
2017-12-22T19:00:26.540Z,35.17
2017-12-22T19:05:58.030Z,32.43
2017-12-22T19:08:27.398Z,29.87
2017-12-22T19:10:55.962Z,33.93
2017-12-22T19:13:24.560Z,35.40
2017-12-22T19:15:53.300Z,39.47
2017-12-22T19:18:22.147Z,39.73
2017-12-22T19:20:50.699Z,36.33
2017-12-22T19:23:19.280Z,39.90
2017-12-22T19:25:47.871Z,41.00
2017-12-22T19:28:16.371Z,37.37
2017-12-22T19:30:44.984Z,43.37
2017-12-22T19:33:13.611Z,46.00
2017-12-22T19:35:43.171Z,46.97
2017-12-22T19:38:12.858Z,37.40
2017-12-22T19:40:42.410Z,33.37
2017-12-22T19:43:11.980Z,30.63
2017-12-22T19:45:41.537Z,26.07
2017-12-22T19:48:10.110Z,29.10
2017-12-22T19:50:38.693Z,37.50
2017-12-22T19:53:07.240Z,38.97
2017-12-22T19:55:35.841Z,41.37
2017-12-22T19:58:05.151Z,37.47
2017-12-22T20:00:34.599Z,36.03
2017-12-22T20:03:02.551Z,40.57
2017-12-22T20:05:31.095Z,40.87
2017-12-22T20:08:00.449Z,34.70
2017-12-22T20:10:29.032Z,39.07
2017-12-22T20:12:57.587Z,33.97
2017-12-22T20:18:28.908Z,43.37
2017-12-22T20:20:57.458Z,49.43
2017-12-22T20:23:26.065Z,39.83
2017-12-22T20:25:54.633Z,48.83
2017-12-22T20:28:23.182Z,44.53
2017-12-22T20:30:51.780Z,46.47
2017-12-22T20:33:20.515Z,46.30
2017-12-22T20:35:49.454Z,52.90
2017-12-22T20:38:17.991Z,53.10
2017-12-22T20:40:46.556Z,50.37
2017-12-22T20:43:15.158Z,59.60
2017-12-22T20:45:45.878Z,53.60
2017-12-22T20:48:14.546Z,62.37
2017-12-22T20:50:43.221Z,66.83
2017-12-22T20:53:11.824Z,52.27
2017-12-22T20:55:40.525Z,55.67
2017-12-22T20:58:09.100Z,52.03
2017-12-22T21:00:37.671Z,39.23
2017-12-22T21:03:06.237Z,42.07
2017-12-22T21:05:35.568Z,47.57
2017-12-22T21:08:04.149Z,43.83
2017-12-22T21:10:32.705Z,53.47
2017-12-22T21:13:01.220Z,48.53
2017-12-22T21:15:29.775Z,63.40
2017-12-22T21:17:58.316Z,53.87
2017-12-22T21:20:27.615Z,62.93
2017-12-22T21:22:56.952Z,48.10
2017-12-22T21:25:26.671Z,47.50
2017-12-22T21:27:56.091Z,54.43
2017-12-22T21:30:24.691Z,62.10
2017-12-22T21:32:53.256Z,61.23
2017-12-22T21:35:21.922Z,47.90
2017-12-22T21:37:50.462Z,49.67
2017-12-22T21:40:19.719Z,48.87
2017-12-22T21:42:48.290Z,48.37
2017-12-22T21:45:17.119Z,43.40
2017-12-22T21:47:46.693Z,42.87
2017-12-22T21:50:16.409Z,44.50
2017-12-22T21:52:45.964Z,42.03
2017-12-22T21:55:15.697Z,39.37
2017-12-22T21:57:45.283Z,42.43
2017-12-22T22:00:14.869Z,47.60
2017-12-22T22:02:44.432Z,37.23
2017-12-22T22:05:14.741Z,43.40
2017-12-22T22:07:44.339Z,42.47
2017-12-22T22:10:13.889Z,45.50
2017-12-22T22:12:43.443Z,41.63
2017-12-22T22:15:13.709Z,41.50
2017-12-22T22:17:43.403Z,40.53
2017-12-22T22:20:12.960Z,53.07
2017-12-22T22:22:42.594Z,44.23
2017-12-22T22:25:12.182Z,43.50
2017-12-22T22:27:46.824Z,51.47
2017-12-22T22:30:16.402Z,76.23
2017-12-22T22:32:45.987Z,100.87
2017-12-22T22:35:15.632Z,85.70
2017-12-22T22:37:45.171Z,113.13
2017-12-22T22:40:14.742Z,150.47
2017-12-22T22:42:44.290Z,72.93
2017-12-22T22:45:14.609Z,93.33
2017-12-22T22:47:44.253Z,59.97
2017-12-22T22:50:13.846Z,69.50
2017-12-22T22:52:43.433Z,69.43
2017-12-22T22:55:13.402Z,76.23
2017-12-22T22:57:42.974Z,66.47
2017-12-22T23:00:12.550Z,86.00
2017-12-22T23:02:42.074Z,69.37
2017-12-22T23:05:11.651Z,65.20
2017-12-22T23:07:41.230Z,66.53
2017-12-22T23:10:10.838Z,69.70
2017-12-22T23:12:40.448Z,58.00
2017-12-22T23:15:09.981Z,54.67
2017-12-22T23:17:39.561Z,60.47
2017-12-22T23:20:09.137Z,70.77
2017-12-22T23:22:38.702Z,55.53
2017-12-22T23:25:08.286Z,56.73
2017-12-22T23:27:37.883Z,57.97
2017-12-22T23:30:07.454Z,51.87
2017-12-22T23:32:37.062Z,49.20
2017-12-22T23:35:06.650Z,46.87
2017-12-22T23:37:36.223Z,51.27
2017-12-22T23:40:05.797Z,47.13
2017-12-22T23:42:35.410Z,46.50
2017-12-22T23:45:04.932Z,35.10
2017-12-22T23:47:34.502Z,38.57
2017-12-22T23:50:04.061Z,37.10
2017-12-22T23:52:33.652Z,33.13
2017-12-22T23:55:03.221Z,39.33
2017-12-22T23:57:32.798Z,41.90
